Terminal Aerodrome Forecast
Issued by NWS

Home | Current Version | Previous Version | Text Only | Print | Product List | Glossary On
Versions: 1 2 3 4 5 6 7 8 9 10 11 12 13
000
FTUS45 KRIW 141100
TAFWRL
TAF
KWRL 141120Z 1412/1512 VRB05KT P6SM SCT250
     FM141900 VRB05KT P6SM SCT100
     FM142300 VRB05G15KT P6SM VCSH BKN110
     FM150300 15007KT P6SM BKN120=

USA.gov is the U.S. government's official web portal to all federal, state and local government web resources and services.